City's sites:

title views votes rating creation
?never been here 351 12 (3.08)  2010-02-07
?pastel negro 557 14 (2.50)  2010-02-07
?dizzy 254 8 (3.38)  2010-02-07
?two pictures from my desktop 831 16 (3.69)  2010-02-09
?broken clock realizes he is the last object left in the ... 392 10 (3.20)  2010-02-09
?heroes of old 557 19 (3.74)  2010-02-09
?mr. price 399 8 (3.25)  2010-02-09
?Music I Like - Part 1 575 10 (3.60)  2010-02-10
?Music I Like - Part 2 349 13 (3.54)  2010-02-10
?Music I Like - Part 3 507 13 (3.69)  2010-02-10
?Music I Like - Part 4 376 5 (3.20)  2010-02-10
?intense 492 9 (3.78)  2010-02-10
?oh SNAP 724 9 (3.22)  2010-02-10
?Music I Like - Part 5 506 9 (3.56)  2010-02-10
?SignlanguageTMND 346 14 (3.86)  2010-02-10
?lol internet (refresh) 547 6 (3.17)  2010-02-12
?Dumbeldore kills snape! 3,250 67 (4.03)  2010-02-12
?prairiedogeric10 tribute site 629 23 (3.96)  2010-02-13
?Legolewdite fan club 1,239 38 (3.87)  2010-02-13
?Connery retires 364 13 (3.85)  2010-02-13
?TOURNEY4: lol internet 511 7 (2.43)  2010-02-15
?Speed Deemon 919 23 (3.74)  2010-02-23
?Tribute: ASSCOCKredux 1,563 64 (3.91)  2010-02-23
?some light jazz with Robert De Niro 794 12 (3.50)  2010-02-23
?In What Language 1,414 34 (3.74)  2010-02-24
?go go go go go go go go go go go go go go go go ... 2,009 23 (3.74)  2010-02-24
?FEARCONDOM'S FAMILY Q U I L T 578 11 (3.55)  2010-02-24
?TEST 705 19 (3.84)  2010-02-26
?....someday, oh dream maker DUNANANANAN... 5,027 148 (3.96)  2010-02-28
?DOUGH FUNNIE HOMO DICKS 575 12 (3.58)  2010-03-01
?Using a concrete bricK 552 17 (3.82)  2010-03-01
?I had sex with a Kayan Tribe woman, little help plea... 868 11 (3.36)  2010-03-03
?Adventure 4 1,007 17 (3.65)  2010-03-03
?the standoff 428 9 (3.67)  2010-03-03
?alley children 497 11 (3.91)  2010-03-05
?Steven Seagal isn't impressed 9,760 181 (4.17)  2010-03-05
?Daunting Steps 218 7 (3.00)  2010-03-05
?Cruel and Unusual 6,102 163 (4.24)  2010-03-09
?DancehallTMND 428 10 (3.80)  2010-03-12
?FUCK OUT MY FACE 487 5 (2.60)  2010-03-18
?16, no dither 742 18 (3.94)  2010-03-20
?say hi to my girlfriend 909 16 (3.81)  2010-03-21
?TT 540 16 (3.88)  2010-03-23
?jimmm thinks about his next five 638 20 (3.80)  2010-03-24
?THE TELEKINETIC MAN 272 18 (3.50)  2010-03-25
?. 119 7 (2.71)  2010-03-26
?1! 316 17 (3.35)  2010-03-26
?Fake crocodile takes it to the limit one more time 588 9 (3.67)  2010-03-27
?croctheme 394 4 (3.25)  2010-03-27
?crocodile site 369 6 (3.50)  2010-03-27
?CROC MAKES A 187 LOOK EASY 181 6 (3.33)  2010-03-27
?New Croc SIte 161 5 (3.40)  2010-03-27
?L 310 19 (3.63)  2010-03-27
?crocodile sIte 233 10 (3.50)  2010-03-30
?Pleasant® 287 8 (3.38)  2010-03-30
?A Lovely Ride 240 13 (3.85)  2010-03-30
?It's glorious today 286 14 (3.64)  2010-04-01
?Na - Zu 413 10 (3.70)  2010-04-01
?WHO'NOWOWOWOW 410 5 (2.60)  2010-04-03
?part of your world 199 5 (3.00)  2010-04-04
?fff 172 4 (3.50)  2010-04-04
?FIve-star webiste 940 16 (1.94)  2010-04-04
?Captain Haddock 1,689 28 (3.86)  2010-04-04
?, 248 9 (3.33)  2010-04-05
?indnian 379 7 (2.71)  2010-04-05
?Ricky Manning tribute sIte will be Underway soon ! 207 3 (3.67)  2010-04-06
?Epic Domain Grab 196 6 (2.17)  2010-04-06
?retirement site 162 6 (2.83)  2010-04-06
?Paul newman doesn't drive a VAN 181 4 (3.00)  2010-04-06
?Vince McMan 321 7 (2.86)  2010-04-06
?LOL 290 5 (3.00)  2010-04-06
?wut 277 4 (2.75)  2010-04-06
?www.coachcarter.ytmnd.com 306 8 (1.88)  2010-04-06
?untitled 277 7 (2.14)  2010-04-09
?ExpirimennalTYTMND 348 8 (3.38)  2010-04-09
?jioejejejoijiojiojioejiejoijeoj 393 14 (3.79)  2010-04-09
?Jake Steele catches a fly ball 335 4 (3.50)  2010-04-10
?Jake Steele forgets the milk 320 3 (3.00)  2010-04-10
?Jake Steele just found his watch 307 4 (3.25)  2010-04-10
?Jake Steele grows up a bit 415 7 (2.86)  2010-04-10
?KRA2008 351 5 (2.60)  2010-04-10
?Fuck the world 739 26 (3.88)  2010-04-16
?a sexual guy 480 10 (2.30)  2010-05-12
?well 289 4 (4.25)  2010-09-03
?gay site you can watch while thinking about stuff 1,520 15 (4.07)  2010-09-13
?site dedicated to great warchief 1,250 12 (3.58)  2010-09-16
?38388 833 8 (3.88)  2010-09-16
?watching the world buzz by 485 4 (3.50)  2010-09-16
?what now 1,408 17 (3.94)  2010-09-16